Time;durP1;ratioP1;P1;durP2;ratioP2;P2;SDS_P1;SDS_P2;PMS_P1;PMS_P2;Temp;Humidity;BMP_temperature;BMP_pressure;BME280_temperature;BME280_humidity;BME280_pressure;Samples;Min_cycle;Max_cycle;Signal;HPM_P1;HPM_P2
2022/01/04 00:01:31;;;;;;;2.70;1.23;;;9.10;93.60;;;;;;5024520;28;20136;-81
2022/01/04 00:03:57;;;;;;;4.25;1.50;;;9.10;93.60;;;;;;5039902;28;20037;-80
2022/01/04 00:06:22;;;;;;;6.50;1.92;;;9.10;93.60;;;;;;5017245;28;20040;-80
2022/01/04 00:08:48;;;;;;;5.63;2.30;;;9.10;93.60;;;;;;5010694;28;20680;-80
2022/01/04 00:11:19;;;;;;;9.70;3.15;;;9.10;93.60;;;;;;5024428;28;20574;-80
2022/01/04 00:13:45;;;;;;;5.13;1.75;;;9.10;93.60;;;;;;5018400;28;20502;-80
2022/01/04 00:16:11;;;;;;;5.95;1.30;;;9.10;93.70;;;;;;4997908;28;20067;-80
2022/01/04 00:18:37;;;;;;;4.50;1.40;;;9.10;93.60;;;;;;5007446;28;20507;-80
2022/01/04 00:21:03;;;;;;;2.78;1.20;;;9.10;93.70;;;;;;5019584;28;20041;-81
2022/01/04 00:23:29;;;;;;;2.90;1.20;;;9.10;93.70;;;;;;4989656;28;20079;-81
2022/01/04 00:25:54;;;;;;;4.95;1.73;;;9.10;93.70;;;;;;5036764;28;20090;-80
2022/01/04 00:28:20;;;;;;;4.35;1.20;;;9.10;93.70;;;;;;5024992;28;20037;-80
2022/01/04 00:30:45;;;;;;;4.47;1.30;;;9.10;93.70;;;;;;4979270;28;20494;-80
2022/01/04 00:33:12;;;;;;;3.15;1.00;;;9.10;93.70;;;;;;5043762;28;20033;-81
2022/01/04 00:35:38;;;;;;;1.52;0.98;;;9.10;93.70;;;;;;5032328;28;20116;-80
2022/01/04 00:38:03;;;;;;;0.82;0.82;;;9.10;93.70;;;;;;5015585;28;20136;-81
2022/01/04 00:40:29;;;;;;;2.55;0.90;;;9.10;93.80;;;;;;5033745;28;20037;-81
2022/01/04 00:42:55;;;;;;;2.13;1.08;;;9.10;93.80;;;;;;5019359;28;20079;-80
2022/01/04 00:45:22;;;;;;;2.15;1.02;;;9.10;93.80;;;;;;5019826;28;20098;-81
2022/01/04 00:50:19;;;;;;;;;;;9.10;93.80;;;;;;5042505;28;20118;-80
2022/01/04 00:52:44;;;;;;;2.17;1.10;;;9.10;93.80;;;;;;5014889;28;19975;-80
2022/01/04 00:55:10;;;;;;;1.95;0.95;;;9.10;93.70;;;;;;5003466;28;20040;-80
2022/01/04 00:57:35;;;;;;;3.15;1.13;;;9.10;93.70;;;;;;5007660;28;20037;-81
2022/01/04 01:00:01;;;;;;;1.27;0.90;;;9.10;93.70;;;;;;5018151;28;20381;-80
2022/01/04 01:02:27;;;;;;;3.53;0.88;;;9.00;93.70;;;;;;4996872;28;20503;-80
2022/01/04 01:04:52;;;;;;;2.30;0.93;;;9.10;93.80;;;;;;5034808;28;20071;-80
2022/01/04 01:07:18;;;;;;;1.15;0.90;;;9.10;93.80;;;;;;5005701;28;20487;-80
2022/01/04 01:10:01;;;;;;;2.05;1.00;;;9.00;93.80;;;;;;5046231;28;20043;-81
2022/01/04 01:12:27;;;;;;;1.17;0.70;;;9.10;93.80;;;;;;4993962;28;20487;-80
2022/01/04 01:14:52;;;;;;;0.98;0.70;;;9.10;93.80;;;;;;5022546;28;20041;-79
2022/01/04 01:17:18;;;;;;;3.50;0.63;;;9.10;93.80;;;;;;5009506;28;20028;-80
2022/01/04 01:19:43;;;;;;;1.02;0.45;;;9.10;93.80;;;;;;5052291;28;20598;-80
2022/01/04 01:22:09;;;;;;;2.65;0.60;;;9.10;93.90;;;;;;5022722;28;20577;-79
2022/01/04 01:24:34;;;;;;;1.25;0.60;;;9.10;94.20;;;;;;5009522;28;20769;-80
2022/01/04 01:27:00;;;;;;;0.50;0.40;;;9.10;93.90;;;;;;5011090;28;20410;-82
2022/01/04 01:29:25;;;;;;;0.93;0.70;;;9.10;93.90;;;;;;5022075;28;20041;-81
2022/01/04 01:31:51;;;;;;;3.20;0.70;;;9.10;93.90;;;;;;5030329;28;20044;-81
2022/01/04 01:34:16;;;;;;;3.90;1.30;;;9.10;93.90;;;;;;5026997;28;20094;-80
2022/01/04 01:36:42;;;;;;;1.83;1.17;;;9.10;93.90;;;;;;5022831;28;20115;-80
2022/01/04 01:39:08;;;;;;;2.40;0.93;;;9.10;93.90;;;;;;5020679;28;20193;-79
2022/01/04 01:41:33;;;;;;;1.38;0.80;;;9.10;93.90;;;;;;4990306;28;20043;-80
2022/01/04 01:43:59;;;;;;;1.38;1.00;;;9.10;93.90;;;;;;5037589;28;20041;-80
2022/01/04 01:46:24;;;;;;;1.33;1.00;;;9.10;93.90;;;;;;4993864;28;20442;-80
2022/01/04 01:48:50;;;;;;;3.80;1.52;;;9.10;94.00;;;;;;5006194;28;20120;-82
2022/01/04 01:51:17;;;;;;;4.65;1.02;;;9.10;93.90;;;;;;4996983;28;20075;-81
2022/01/04 01:53:45;;;;;;;1.77;1.00;;;9.00;93.90;;;;;;4989489;28;20037;-80
2022/01/04 01:56:11;;;;;;;3.03;1.15;;;9.00;93.80;;;;;;4984843;28;20091;-81
2022/01/04 01:58:36;;;;;;;3.50;1.70;;;9.10;93.80;;;;;;5023653;28;20021;-80
2022/01/04 02:01:02;;;;;;;4.40;1.77;;;9.10;93.80;;;;;;5022078;28;20091;-80
2022/01/04 02:03:28;;;;;;;2.25;1.13;;;9.00;93.90;;;;;;5030481;28;20606;-81
2022/01/04 02:05:53;;;;;;;1.83;1.13;;;9.10;93.90;;;;;;5012172;28;20052;-82
2022/01/04 02:08:19;;;;;;;0.90;0.80;;;9.00;93.90;;;;;;5002153;28;20122;-82
2022/01/04 02:10:44;;;;;;;2.80;1.17;;;9.00;93.90;;;;;;5011982;28;20029;-80
2022/01/04 02:13:10;;;;;;;1.08;0.90;;;9.00;93.90;;;;;;5016298;28;20037;-80
2022/01/04 02:15:35;;;;;;;1.23;0.77;;;9.00;93.90;;;;;;5001322;28;20117;-81
2022/01/04 02:18:01;;;;;;;1.45;0.88;;;9.00;93.90;;;;;;5013524;28;20069;-80
2022/01/04 02:20:27;;;;;;;2.50;0.82;;;9.00;93.90;;;;;;5002040;28;20053;-80
2022/01/04 02:22:54;;;;;;;1.23;0.70;;;9.00;94.00;;;;;;5001426;28;20042;-80
2022/01/04 02:25:19;;;;;;;1.23;0.70;;;8.90;94.00;;;;;;5019516;28;20039;-80
2022/01/04 02:27:45;;;;;;;1.42;0.73;;;8.90;94.00;;;;;;4995012;28;20029;-80
2022/01/04 02:30:14;;;;;;;0.80;0.70;;;9.00;94.00;;;;;;5023352;28;20053;-80
2022/01/04 02:32:40;;;;;;;2.60;0.80;;;9.00;94.00;;;;;;5005531;28;20116;-80
2022/01/04 02:35:06;;;;;;;0.50;0.50;;;8.90;94.00;;;;;;5026708;28;20078;-80
2022/01/04 02:37:33;;;;;;;0.38;0.38;;;9.00;94.10;;;;;;4981360;28;20519;-80
2022/01/04 02:39:58;;;;;;;3.50;0.57;;;8.90;94.00;;;;;;5016235;28;20026;-81
2022/01/04 02:42:24;;;;;;;2.38;0.70;;;8.90;94.00;;;;;;5000620;28;20820;-81
2022/01/04 02:44:49;;;;;;;1.00;0.40;;;9.00;94.10;;;;;;5009853;28;20064;-80
2022/01/04 02:47:15;;;;;;;0.93;0.60;;;9.00;94.10;;;;;;5022011;28;20716;-80
2022/01/04 02:49:41;;;;;;;0.77;0.43;;;9.00;94.10;;;;;;5016814;28;20039;-81
2022/01/04 02:52:06;;;;;;;0.93;0.70;;;9.00;94.10;;;;;;5021526;28;20033;-80
2022/01/04 02:54:32;;;;;;;0.80;0.40;;;9.00;94.10;;;;;;5002071;28;20040;-80
2022/01/04 02:56:57;;;;;;;0.85;0.40;;;9.00;94.10;;;;;;5030274;28;20049;-80
2022/01/04 02:59:23;;;;;;;0.70;0.40;;;9.00;94.10;;;;;;5021139;28;20098;-79
2022/01/04 03:01:48;;;;;;;0.60;0.55;;;9.00;94.10;;;;;;5040194;28;20458;-79
2022/01/04 03:04:14;;;;;;;0.40;0.40;;;9.00;94.10;;;;;;5006076;28;20064;-81
2022/01/04 03:06:39;;;;;;;0.30;0.30;;;9.00;94.10;;;;;;5011993;28;20035;-79
2022/01/04 03:09:05;;;;;;;0.85;0.60;;;9.00;94.10;;;;;;5023114;28;20028;-80
2022/01/04 03:11:32;;;;;;;0.50;0.30;;;9.00;94.10;;;;;;5025148;28;20039;-80
2022/01/04 03:13:57;;;;;;;0.32;0.30;;;9.00;94.10;;;;;;5024393;28;20043;-80
2022/01/04 03:16:23;;;;;;;0.30;0.30;;;9.00;94.10;;;;;;5031275;28;20025;-79
2022/01/04 03:19:03;;;;;;;0.30;0.30;;;9.00;94.10;;;;;;5043823;28;20025;-80
2022/01/04 03:21:29;;;;;;;0.85;0.50;;;9.00;94.10;;;;;;5008232;28;20029;-80
2022/01/04 03:23:55;;;;;;;0.63;0.50;;;9.00;94.10;;;;;;5027946;28;20044;-79
2022/01/04 03:26:20;;;;;;;0.30;0.30;;;9.00;94.10;;;;;;5044622;28;20603;-80
2022/01/04 03:28:46;;;;;;;0.60;0.60;;;9.00;94.10;;;;;;5006183;28;20041;-80
2022/01/04 03:31:11;;;;;;;0.80;0.45;;;9.00;94.10;;;;;;4992903;28;20041;-80
2022/01/04 03:33:37;;;;;;;0.80;0.50;;;9.00;94.10;;;;;;5014556;28;20499;-80
2022/01/04 03:36:03;;;;;;;0.70;0.70;;;9.00;94.10;;;;;;5024044;28;20561;-81
2022/01/04 03:38:29;;;;;;;0.70;0.50;;;9.00;94.10;;;;;;5009043;28;20033;-80
2022/01/04 03:40:54;;;;;;;1.85;0.60;;;9.00;94.20;;;;;;5000962;28;20093;-79
2022/01/04 03:43:21;;;;;;;0.50;0.50;;;9.00;94.20;;;;;;5034235;28;20029;-80
2022/01/04 03:45:47;;;;;;;2.28;1.00;;;9.00;94.20;;;;;;5022374;28;20047;-81
2022/01/04 03:48:13;;;;;;;0.80;0.80;;;9.00;94.20;;;;;;5016353;28;20040;-79
2022/01/04 03:50:39;;;;;;;2.85;0.50;;;9.00;94.20;;;;;;5002805;28;20032;-80
2022/01/04 03:53:04;;;;;;;0.60;0.60;;;9.00;94.30;;;;;;5007203;28;20503;-79
2022/01/04 03:55:30;;;;;;;1.13;0.68;;;9.10;94.30;;;;;;4998862;28;20036;-80
2022/01/04 03:57:55;;;;;;;1.30;0.60;;;9.10;94.30;;;;;;5034516;28;20108;-82
2022/01/04 04:00:21;;;;;;;0.70;0.60;;;9.10;94.30;;;;;;5048756;28;20025;-82
2022/01/04 04:02:46;;;;;;;2.03;0.60;;;9.10;94.30;;;;;;5022487;28;20126;-81
2022/01/04 04:05:13;;;;;;;0.40;0.40;;;9.10;94.30;;;;;;5013994;28;20650;-80
2022/01/04 04:07:38;;;;;;;0.85;0.63;;;9.10;94.30;;;;;;5008158;28;20025;-81
2022/01/04 04:10:04;;;;;;;0.95;0.75;;;9.20;94.40;;;;;;5023545;28;20036;-82
2022/01/04 04:12:30;;;;;;;0.70;0.70;;;9.20;94.40;;;;;;5006335;28;20025;-83
2022/01/04 04:14:58;;;;;;;1.33;0.70;;;9.20;94.40;;;;;;5017093;28;20033;-80
2022/01/04 04:17:24;;;;;;;0.60;0.60;;;9.20;94.40;;;;;;5009406;28;20060;-80
2022/01/04 04:19:49;;;;;;;0.65;0.40;;;9.20;94.40;;;;;;5013877;28;20553;-83
2022/01/04 04:22:15;;;;;;;2.63;0.60;;;9.30;94.40;;;;;;5012316;28;20029;-81
2022/01/04 04:24:41;;;;;;;1.30;0.50;;;9.30;94.50;;;;;;5007401;28;20397;-81
2022/01/04 04:27:06;;;;;;;2.20;0.70;;;9.30;94.50;;;;;;5023054;28;20041;-81
2022/01/04 04:29:33;;;;;;;0.60;0.60;;;9.40;94.50;;;;;;5007930;28;20052;-81
2022/01/04 04:31:58;;;;;;;1.02;0.50;;;9.40;94.50;;;;;;5023557;28;20686;-81
2022/01/04 04:34:24;;;;;;;1.25;0.50;;;9.40;94.50;;;;;;4997397;28;20105;-81
2022/01/04 04:36:49;;;;;;;1.58;0.60;;;9.40;94.50;;;;;;5035039;28;20061;-80
2022/01/04 04:39:15;;;;;;;1.05;0.45;;;9.40;94.50;;;;;;5006188;28;20128;-80
2022/01/04 04:41:40;;;;;;;0.68;0.40;;;9.50;94.50;;;;;;4998492;28;20529;-81
2022/01/04 04:44:06;;;;;;;0.77;0.50;;;9.50;94.50;;;;;;5037276;28;20044;-80
2022/01/04 04:46:32;;;;;;;3.17;0.60;;;9.50;94.50;;;;;;5019898;28;20048;-81
2022/01/04 04:48:57;;;;;;;1.08;0.50;;;9.50;94.50;;;;;;4999425;28;20098;-80
2022/01/04 04:51:23;;;;;;;1.17;0.50;;;9.60;94.60;;;;;;5014052;28;20581;-79
2022/01/04 04:53:48;;;;;;;1.13;0.45;;;9.60;94.60;;;;;;5022528;28;20029;-80
2022/01/04 04:56:14;;;;;;;0.73;0.45;;;9.60;94.50;;;;;;5028822;28;20028;-79
2022/01/04 04:58:39;;;;;;;0.50;0.50;;;9.60;94.50;;;;;;4996396;28;20102;-80
2022/01/04 05:01:05;;;;;;;1.02;0.55;;;9.60;94.50;;;;;;4991096;28;20053;-80
2022/01/04 05:03:30;;;;;;;0.63;0.50;;;9.60;94.60;;;;;;4997425;28;20060;-81
2022/01/04 05:05:56;;;;;;;0.77;0.32;;;9.60;94.50;;;;;;5013599;28;20048;-80
2022/01/04 05:08:21;;;;;;;1.40;0.50;;;9.70;94.60;;;;;;4989014;28;20029;-82
2022/01/04 05:10:47;;;;;;;1.50;0.40;;;9.70;94.80;;;;;;5005843;28;20020;-80
2022/01/04 05:13:12;;;;;;;0.40;0.40;;;9.70;94.50;;;;;;5034874;28;20033;-80
2022/01/04 05:15:38;;;;;;;0.50;0.50;;;9.70;94.60;;;;;;5049495;28;20459;-81
2022/01/04 05:18:03;;;;;;;0.50;0.50;;;9.70;94.60;;;;;;5022072;28;20051;-80
2022/01/04 05:20:29;;;;;;;0.75;0.40;;;9.70;94.50;;;;;;5048246;28;20040;-80
2022/01/04 05:22:54;;;;;;;1.20;0.70;;;9.70;94.50;;;;;;5009720;28;20033;-81
2022/01/04 05:25:20;;;;;;;0.70;0.50;;;9.70;94.50;;;;;;5010616;28;20048;-80
2022/01/04 05:27:45;;;;;;;1.02;0.52;;;9.70;94.50;;;;;;5011698;28;20577;-80
2022/01/04 05:30:11;;;;;;;0.50;0.40;;;9.70;94.50;;;;;;5023725;28;20043;-80
2022/01/04 05:32:37;;;;;;;1.55;0.40;;;9.80;94.60;;;;;;5036559;28;20048;-80
2022/01/04 05:35:02;;;;;;;0.30;0.30;;;9.70;94.50;;;;;;5004379;28;20042;-80
2022/01/04 05:37:28;;;;;;;0.85;0.40;;;9.80;94.60;;;;;;5045727;28;21041;-81
2022/01/04 05:39:53;;;;;;;1.85;0.30;;;9.80;94.50;;;;;;5026457;28;20033;-79
2022/01/04 05:42:19;;;;;;;0.30;0.30;;;9.80;94.50;;;;;;5016595;28;20032;-81
2022/01/04 05:44:44;;;;;;;0.65;0.40;;;9.80;94.50;;;;;;5050872;28;20099;-81
2022/01/04 05:47:10;;;;;;;1.10;0.70;;;9.80;94.50;;;;;;5005844;28;20478;-80
2022/01/04 05:49:37;;;;;;;4.53;0.68;;;9.80;94.50;;;;;;5022439;28;20171;-81
2022/01/04 05:52:04;;;;;;;1.48;0.45;;;9.80;94.50;;;;;;5011915;28;20045;-80
2022/01/04 05:54:30;;;;;;;0.30;0.30;;;9.80;94.50;;;;;;5004389;28;20041;-80
2022/01/04 05:56:55;;;;;;;0.47;0.40;;;9.80;94.50;;;;;;5002990;28;20037;-81
2022/01/04 05:59:21;;;;;;;0.75;0.40;;;9.80;94.50;;;;;;5032872;28;20043;-80
2022/01/04 06:01:46;;;;;;;0.90;0.60;;;9.80;94.50;;;;;;5020127;28;20059;-81
2022/01/04 06:04:12;;;;;;;0.40;0.40;;;9.80;94.50;;;;;;5021934;28;20616;-80
2022/01/04 06:06:40;;;;;;;0.52;0.43;;;9.80;94.50;;;;;;5013023;28;20033;-80
2022/01/04 06:09:07;;;;;;;1.88;1.00;;;9.80;94.50;;;;;;5021390;28;20033;-80
2022/01/04 06:11:58;;;;;;;8.73;4.25;;;9.80;94.50;;;;;;5020776;28;20984;-80
2022/01/04 06:17:09;;;;;;;1.63;1.23;;;9.80;94.50;;;;;;5050679;28;20068;-80
2022/01/04 06:19:34;;;;;;;4.30;2.78;;;9.80;94.50;;;;;;5020713;28;20478;-81
2022/01/04 06:22:00;;;;;;;3.75;1.90;;;9.80;94.50;;;;;;5027796;28;20164;-80
2022/01/04 06:24:25;;;;;;;1.85;1.20;;;9.80;94.50;;;;;;5026642;28;20058;-81
2022/01/04 06:26:52;;;;;;;2.03;1.50;;;9.80;94.50;;;;;;5020975;28;20496;-80
2022/01/04 06:29:20;;;;;;;1.80;1.33;;;9.90;94.50;;;;;;5003288;28;20615;-81
2022/01/04 06:31:45;;;;;;;1.33;1.15;;;9.80;94.50;;;;;;4980863;28;20507;-80
2022/01/04 06:34:11;;;;;;;2.08;1.38;;;9.80;94.90;;;;;;5039249;28;20036;-81
2022/01/04 06:36:36;;;;;;;2.35;1.15;;;9.90;94.50;;;;;;5005754;28;20505;-80
2022/01/04 06:39:02;;;;;;;2.45;0.60;;;9.90;94.50;;;;;;5019748;28;20049;-80
2022/01/04 06:41:27;;;;;;;1.00;0.68;;;9.90;94.50;;;;;;5019551;28;20183;-80
2022/01/04 06:43:53;;;;;;;0.75;0.60;;;9.90;94.50;;;;;;5036767;28;20111;-81
2022/01/04 06:46:18;;;;;;;2.35;1.10;;;9.90;94.50;;;;;;4980954;28;20045;-80
2022/01/04 06:48:44;;;;;;;1.92;1.10;;;9.90;94.50;;;;;;5027986;28;20044;-80
2022/01/04 06:51:09;;;;;;;0.45;0.45;;;9.80;94.50;;;;;;5020524;28;20043;-80
2022/01/04 06:53:35;;;;;;;0.55;0.32;;;9.90;94.50;;;;;;5005423;28;20029;-80
2022/01/04 06:56:00;;;;;;;1.13;0.73;;;9.90;94.40;;;;;;4996472;28;20036;-80
2022/01/04 06:58:26;;;;;;;2.38;1.13;;;9.90;94.50;;;;;;4995912;28;20037;-80
2022/01/04 07:00:52;;;;;;;2.58;1.88;;;9.90;94.50;;;;;;5011217;28;20052;-80
2022/01/04 07:03:17;;;;;;;1.20;0.93;;;9.90;94.50;;;;;;5008146;28;20028;-80
2022/01/04 07:05:43;;;;;;;3.35;1.08;;;9.90;94.50;;;;;;5020504;28;20048;-80
2022/01/04 07:08:08;;;;;;;1.13;0.98;;;9.90;94.50;;;;;;4993314;28;20075;-80
2022/01/04 07:10:34;;;;;;;1.77;1.60;;;9.80;94.40;;;;;;5009104;28;20573;-80
2022/01/04 07:12:59;;;;;;;0.85;0.85;;;9.90;94.50;;;;;;5010395;28;20040;-81
2022/01/04 07:15:25;;;;;;;0.60;0.60;;;9.90;94.50;;;;;;5009863;28;20050;-80
2022/01/04 07:17:50;;;;;;;0.95;0.90;;;9.90;94.50;;;;;;5003400;28;20063;-80
2022/01/04 07:20:16;;;;;;;0.95;0.70;;;9.90;94.80;;;;;;5011318;28;20060;-81
2022/01/04 07:22:41;;;;;;;0.70;0.65;;;9.90;94.50;;;;;;5021667;28;20102;-81
2022/01/04 07:25:07;;;;;;;0.35;0.35;;;9.90;94.50;;;;;;5016299;28;20044;-80
2022/01/04 07:27:33;;;;;;;1.05;0.80;;;9.90;94.50;;;;;;5045383;28;20052;-81
2022/01/04 07:29:59;;;;;;;2.22;1.90;;;9.90;94.50;;;;;;5003230;28;20388;-81
2022/01/04 07:32:24;;;;;;;6.30;5.15;;;9.90;94.50;;;;;;5011557;28;20606;-80
2022/01/04 07:34:50;;;;;;;3.25;1.58;;;9.90;94.50;;;;;;5038535;28;20055;-80
2022/01/04 07:37:15;;;;;;;1.48;0.90;;;9.90;94.50;;;;;;4997892;28;20124;-80
2022/01/04 07:39:41;;;;;;;1.23;1.13;;;9.90;94.50;;;;;;5033635;28;20111;-80
2022/01/04 07:42:07;;;;;;;2.78;1.85;;;9.90;94.50;;;;;;5049848;28;20727;-80
2022/01/04 07:44:32;;;;;;;1.88;1.00;;;9.90;94.50;;;;;;5023796;28;20037;-80
2022/01/04 07:46:58;;;;;;;2.28;1.13;;;9.90;94.50;;;;;;5009846;28;20053;-80
2022/01/04 07:49:23;;;;;;;0.93;0.80;;;9.90;94.50;;;;;;4986561;28;20461;-80
2022/01/04 07:51:49;;;;;;;1.30;1.15;;;9.90;94.50;;;;;;5022603;28;20616;-80
2022/01/04 07:54:14;;;;;;;1.38;1.15;;;9.90;94.50;;;;;;5030334;28;20062;-82
2022/01/04 07:56:40;;;;;;;5.05;3.38;;;9.90;94.50;;;;;;5018890;28;20040;-81
2022/01/04 07:59:05;;;;;;;2.45;1.60;;;9.90;94.50;;;;;;4993460;28;20033;-80
2022/01/04 08:01:31;;;;;;;2.60;1.60;;;10.00;94.60;;;;;;5027341;28;20033;-80
2022/01/04 08:03:57;;;;;;;2.03;1.52;;;9.90;94.50;;;;;;5007456;28;20068;-81
2022/01/04 08:06:22;;;;;;;2.70;1.63;;;9.90;94.50;;;;;;5004954;28;20073;-80
2022/01/04 08:08:49;;;;;;;1.98;1.77;;;9.90;94.50;;;;;;5023938;28;20050;-82
2022/01/04 08:11:14;;;;;;;1.88;1.48;;;9.90;94.50;;;;;;5016258;28;20052;-81
2022/01/04 08:13:40;;;;;;;1.65;1.42;;;9.90;94.50;;;;;;4993611;28;20140;-82
2022/01/04 08:16:05;;;;;;;1.98;1.00;;;9.90;94.50;;;;;;5015846;28;20487;-81
2022/01/04 08:18:31;;;;;;;3.42;2.63;;;9.90;94.50;;;;;;5027455;28;20049;-80
2022/01/04 08:20:57;;;;;;;5.15;3.13;;;10.00;94.60;;;;;;4999623;28;20102;-81
2022/01/04 08:23:24;;;;;;;59.03;25.25;;;10.00;94.60;;;;;;5039576;28;20056;-80
2022/01/04 08:25:50;;;;;;;31.80;14.95;;;10.00;94.60;;;;;;5011777;28;20116;-80
2022/01/04 08:28:15;;;;;;;21.63;11.57;;;10.00;94.60;;;;;;5035824;28;20112;-85
2022/01/04 08:30:42;;;;;;;12.82;6.55;;;10.00;94.60;;;;;;5018095;28;20064;-81
2022/01/04 08:33:11;;;;;;;9.27;4.47;;;10.00;94.60;;;;;;5033072;28;20036;-81
2022/01/04 08:35:38;;;;;;;4.95;3.65;;;10.00;94.50;;;;;;5024209;28;20036;-80
2022/01/04 08:38:04;;;;;;;8.90;5.53;;;10.00;94.50;;;;;;5018448;28;20116;-81
2022/01/04 08:40:30;;;;;;;7.82;4.75;;;10.00;94.50;;;;;;5003422;28;20491;-81
2022/01/04 08:42:56;;;;;;;6.07;4.80;;;10.00;94.60;;;;;;5018982;28;20096;-81
2022/01/04 08:45:23;;;;;;;2.60;2.13;;;10.10;94.60;;;;;;5035631;28;20515;-81
2022/01/04 08:47:49;;;;;;;1.65;1.30;;;10.10;94.60;;;;;;5018667;28;20034;-81
2022/01/04 08:50:15;;;;;;;2.38;2.10;;;10.00;94.60;;;;;;4990685;28;20112;-80
2022/01/04 08:52:40;;;;;;;4.78;3.20;;;10.10;94.60;;;;;;4983220;28;20163;-82
2022/01/04 08:55:07;;;;;;;4.43;3.60;;;10.10;94.60;;;;;;5002059;28;20151;-80
2022/01/04 08:57:32;;;;;;;2.47;1.60;;;10.10;94.60;;;;;;5000798;28;20114;-80
2022/01/04 09:00:01;;;;;;;2.42;2.22;;;10.10;94.60;;;;;;5008904;28;20071;-81
2022/01/04 09:02:27;;;;;;;1.63;1.42;;;10.10;94.60;;;;;;5019520;28;20035;-81
2022/01/04 09:04:52;;;;;;;1.70;1.00;;;10.10;94.60;;;;;;5020397;28;20825;-80
2022/01/04 09:07:18;;;;;;;0.70;0.70;;;10.10;94.60;;;;;;5023758;28;20116;-81
2022/01/04 09:09:43;;;;;;;1.20;0.93;;;10.20;94.60;;;;;;5020891;28;20045;-80
2022/01/04 09:12:09;;;;;;;1.08;0.98;;;10.20;94.60;;;;;;5003335;28;20036;-81
2022/01/04 09:14:54;;;;;;;2.58;1.95;;;10.20;94.60;;;;;;5021384;28;20029;-80
2022/01/04 09:20:06;;;;;;;7.63;3.80;;;10.20;94.70;;;;;;5023564;28;20064;-81
2022/01/04 09:22:31;;;;;;;8.93;4.68;;;10.20;94.60;;;;;;5013071;28;20526;-81
2022/01/04 09:24:57;;;;;;;5.63;3.25;;;10.20;94.60;;;;;;5008135;28;20037;-80
2022/01/04 09:27:22;;;;;;;6.57;3.55;;;10.20;94.70;;;;;;4989649;28;20033;-81
2022/01/04 09:29:49;;;;;;;3.33;1.92;;;10.20;94.70;;;;;;5039304;28;20148;-80
2022/01/04 09:32:16;;;;;;;2.03;1.38;;;10.30;94.70;;;;;;5005722;28;20074;-81
2022/01/04 09:34:43;;;;;;;1.98;1.30;;;10.30;94.70;;;;;;4982276;28;20037;-81
2022/01/04 09:37:09;;;;;;;2.08;1.48;;;10.30;94.70;;;;;;5021148;28;20037;-81
2022/01/04 09:39:34;;;;;;;2.47;1.98;;;10.30;94.70;;;;;;4997024;28;20114;-80
2022/01/04 09:42:00;;;;;;;3.60;2.72;;;10.30;94.70;;;;;;5003069;28;20571;-80
2022/01/04 09:44:27;;;;;;;8.60;5.53;;;10.40;94.70;;;;;;5037804;28;20597;-81
2022/01/04 09:46:53;;;;;;;3.03;2.30;;;10.40;94.70;;;;;;4973054;28;20068;-80
2022/01/04 09:49:19;;;;;;;6.10;2.78;;;10.40;94.70;;;;;;5039703;28;20087;-80
2022/01/04 09:51:44;;;;;;;1.20;1.10;;;10.40;94.70;;;;;;5005350;28;20029;-81
2022/01/04 09:54:10;;;;;;;1.27;1.00;;;10.40;94.70;;;;;;5005050;28;20084;-80
2022/01/04 09:56:36;;;;;;;1.60;0.85;;;10.40;94.70;;;;;;5021108;28;20037;-80
2022/01/04 09:59:01;;;;;;;1.45;0.90;;;10.40;94.80;;;;;;5019921;28;20127;-80
2022/01/04 10:01:34;;;;;;;2.28;0.70;;;10.40;94.80;;;;;;4979020;28;20154;-81
2022/01/04 10:04:00;;;;;;;0.85;0.50;;;10.50;94.80;;;;;;5020663;28;20044;-80
2022/01/04 10:06:26;;;;;;;0.88;0.25;;;10.50;94.80;;;;;;5014814;28;20069;-80
2022/01/04 10:08:55;;;;;;;0.45;0.40;;;10.50;94.80;;;;;;5006644;28;20416;-79
2022/01/04 10:11:33;;;;;;;0.55;0.30;;;10.50;94.80;;;;;;5001561;28;20033;-80
2022/01/04 10:14:22;;;;;;;0.20;0.20;;;10.50;94.80;;;;;;5015732;28;20135;-81
2022/01/04 10:16:51;;;;;;;0.50;0.45;;;10.50;94.80;;;;;;5000990;28;20091;-81
2022/01/04 10:19:36;;;;;;;0.70;0.30;;;10.50;94.80;;;;;;5017966;28;20123;-80
2022/01/04 10:22:34;;;;;;;3.10;0.90;;;10.50;94.80;;;;;;5014935;28;20048;-80
2022/01/04 10:25:02;;;;;;;4.70;1.40;;;10.50;94.80;;;;;;4985062;28;20043;-81
2022/01/04 10:27:41;;;;;;;1.45;0.50;;;10.50;94.70;;;;;;5027368;28;20038;-81
2022/01/04 10:30:29;;;;;;;0.73;0.50;;;10.50;94.70;;;;;;5016840;28;20678;-80
2022/01/04 10:33:08;;;;;;;1.50;0.43;;;10.40;94.60;;;;;;5019326;28;20052;-80
2022/01/04 10:35:44;;;;;;;0.38;0.32;;;10.40;94.50;;;;;;5016853;28;20825;-80
2022/01/04 10:38:20;;;;;;;0.50;0.40;;;10.40;94.50;;;;;;5015423;28;21146;-81
2022/01/04 10:40:50;;;;;;;0.55;0.50;;;10.30;94.50;;;;;;4999345;28;20038;-81
2022/01/04 10:43:19;;;;;;;0.90;0.40;;;10.30;94.50;;;;;;5009423;28;20057;-81
2022/01/04 10:45:45;;;;;;;0.90;0.52;;;10.30;94.40;;;;;;4991579;28;20054;-80
2022/01/04 10:48:26;;;;;;;0.88;0.40;;;10.20;94.40;;;;;;4999128;28;20223;-80
2022/01/04 10:50:59;;;;;;;0.57;0.43;;;10.20;94.40;;;;;;5018230;28;20103;-81
2022/01/04 10:53:42;;;;;;;0.25;0.20;;;10.10;94.30;;;;;;5015877;28;20272;-80
2022/01/04 10:56:10;;;;;;;0.38;0.30;;;10.10;94.20;;;;;;5023542;28;20588;-81
2022/01/04 10:58:37;;;;;;;0.32;0.32;;;10.00;94.20;;;;;;5017209;28;20034;-80
2022/01/04 11:01:05;;;;;;;1.33;0.28;;;10.00;94.20;;;;;;5014386;28;20095;-81
2022/01/04 11:03:32;;;;;;;0.20;0.20;;;9.90;94.10;;;;;;4982518;28;20048;-81
2022/01/04 11:06:05;;;;;;;0.60;0.30;;;9.90;94.10;;;;;;5035233;28;20052;-81
2022/01/04 11:08:31;;;;;;;2.03;0.88;;;9.90;94.40;;;;;;4994202;28;20048;-81
2022/01/04 11:10:57;;;;;;;0.60;0.60;;;9.80;94.10;;;;;;4980975;28;20037;-82
2022/01/04 11:13:23;;;;;;;0.50;0.50;;;9.80;94.10;;;;;;5018748;28;20079;-80
2022/01/04 11:15:48;;;;;;;1.83;0.43;;;9.80;94.00;;;;;;4989554;28;20069;-80
2022/01/04 11:18:14;;;;;;;0.75;0.35;;;9.70;94.00;;;;;;4995387;28;20037;-81
2022/01/04 11:20:41;;;;;;;0.40;0.35;;;9.70;94.00;;;;;;5025621;28;20037;-81
2022/01/04 11:23:06;;;;;;;0.13;0.13;;;9.70;93.90;;;;;;5028346;28;20036;-81
2022/01/04 11:25:32;;;;;;;0.28;0.25;;;9.70;93.90;;;;;;4985892;28;20048;-80
2022/01/04 11:27:57;;;;;;;1.10;0.40;;;9.70;93.90;;;;;;5022226;28;20048;-81
2022/01/04 11:30:32;;;;;;;0.70;0.45;;;9.70;93.90;;;;;;5003491;28;20026;-81
2022/01/04 11:33:02;;;;;;;0.55;0.50;;;9.60;93.90;;;;;;5013457;28;20471;-81
2022/01/04 11:35:29;;;;;;;0.25;0.25;;;9.60;93.80;;;;;;5014814;28;20126;-82
2022/01/04 11:37:56;;;;;;;3.28;0.70;;;9.60;93.80;;;;;;4997926;28;20182;-81
2022/01/04 11:40:31;;;;;;;0.63;0.43;;;9.60;93.80;;;;;;5004247;28;20519;-82
2022/01/04 11:42:57;;;;;;;1.75;0.40;;;9.50;93.70;;;;;;5019503;28;20046;-80
2022/01/04 11:45:44;;;;;;;0.50;0.50;;;9.50;93.70;;;;;;5015484;28;20068;-81
2022/01/04 11:48:42;;;;;;;2.40;0.20;;;9.50;93.70;;;;;;5024188;28;20033;-82
2022/01/04 11:51:29;;;;;;;1.00;0.30;;;9.40;93.60;;;;;;4989650;28;20041;-82
2022/01/04 11:54:17;;;;;;;0.60;0.30;;;9.40;93.60;;;;;;5043003;28;20731;-82
2022/01/04 11:56:56;;;;;;;1.98;1.02;;;9.40;93.70;;;;;;5019101;28;20033;-82
2022/01/04 11:59:26;;;;;;;18.05;8.95;;;9.40;93.70;;;;;;5027935;28;20410;-82
2022/01/04 12:01:52;;;;;;;5.83;3.30;;;9.40;93.60;;;;;;4998981;28;20219;-80
2022/01/04 12:04:50;;;;;;;2.47;1.20;;;9.30;93.60;;;;;;5009160;28;20273;-80
2022/01/04 12:07:47;;;;;;;1.05;0.60;;;9.30;93.60;;;;;;5008440;28;20040;-82
2022/01/04 12:10:22;;;;;;;2.28;1.13;;;9.30;93.70;;;;;;4998133;28;20135;-82
2022/01/04 12:13:09;;;;;;;0.95;0.80;;;9.30;93.60;;;;;;5051894;28;20033;-81
2022/01/04 12:15:35;;;;;;;2.63;1.40;;;9.30;93.50;;;;;;4999231;28;20043;-82
2022/01/04 12:18:01;;;;;;;2.85;1.05;;;9.20;93.60;;;;;;5034168;28;20022;-80
2022/01/04 12:20:41;;;;;;;1.08;0.70;;;9.20;93.60;;;;;;5037586;28;20041;-81
2022/01/04 12:23:26;;;;;;;0.80;0.50;;;9.20;93.50;;;;;;5036394;28;20036;-80
2022/01/04 12:26:03;;;;;;;0.77;0.50;;;9.20;93.50;;;;;;5036229;28;20033;-80
2022/01/04 12:28:32;;;;;;;0.60;0.40;;;9.10;93.50;;;;;;5038301;28;20114;-80
2022/01/04 12:31:13;;;;;;;0.75;0.50;;;9.10;93.50;;;;;;5019857;28;20033;-80
2022/01/04 12:33:42;;;;;;;0.80;0.60;;;9.10;93.40;;;;;;5019263;28;20025;-80
2022/01/04 12:36:08;;;;;;;3.35;0.60;;;9.10;93.50;;;;;;5021335;28;20041;-82
2022/01/04 12:38:34;;;;;;;7.03;3.45;;;9.10;93.50;;;;;;4979334;28;20033;-81
2022/01/04 12:41:01;;;;;;;3.20;2.42;;;9.10;93.50;;;;;;5011474;28;20040;-81
2022/01/04 12:43:27;;;;;;;1.60;0.80;;;9.10;93.40;;;;;;5021606;28;20106;-81
2022/01/04 12:46:00;;;;;;;0.70;0.43;;;9.00;93.40;;;;;;5018244;28;20805;-82
2022/01/04 12:48:47;;;;;;;0.50;0.30;;;9.00;93.40;;;;;;5021897;28;20029;-80
2022/01/04 12:51:32;;;;;;;0.40;0.40;;;9.00;93.70;;;;;;5025605;28;20184;-81
2022/01/04 12:54:05;;;;;;;0.35;0.20;;;9.00;93.30;;;;;;5043386;28;20041;-82
2022/01/04 12:56:31;;;;;;;0.30;0.30;;;8.90;93.30;;;;;;5025038;28;20028;-80
2022/01/04 12:58:57;;;;;;;0.20;0.20;;;8.80;93.20;;;;;;5051639;28;20041;-81
2022/01/04 13:01:27;;;;;;;0.08;0.08;;;8.80;93.20;;;;;;5025414;28;20064;-80
2022/01/04 13:03:53;;;;;;;0.30;0.30;;;8.80;93.10;;;;;;5012216;28;20041;-80
2022/01/04 13:06:18;;;;;;;1.02;0.60;;;8.80;93.20;;;;;;4990515;28;20345;-80